createdAt,value
2023-02-18T00:01:42.996Z,99240.17
2023-02-18T00:04:11.283Z,99251.27
2023-02-18T00:06:40.001Z,99258.09
2023-02-18T00:09:08.426Z,99257.09
2023-02-18T00:11:37.463Z,99264.60
2023-02-18T00:14:08.259Z,99269.20
2023-02-18T00:16:36.858Z,99273.69
2023-02-18T00:19:07.008Z,99281.89
2023-02-18T00:21:36.419Z,99286.04
2023-02-18T00:24:05.900Z,99291.02
2023-02-18T00:26:35.103Z,99287.34
2023-02-18T00:29:04.611Z,99286.71
2023-02-18T00:31:35.517Z,99284.86
2023-02-18T00:34:05.254Z,99292.02
2023-02-18T00:36:34.610Z,99297.30
2023-02-18T00:39:05.029Z,99293.08
2023-02-18T00:41:36.092Z,99294.65
2023-02-18T00:44:04.635Z,99293.97
2023-02-18T00:46:34.170Z,99295.02
2023-02-18T00:49:03.440Z,99292.11
2023-02-18T00:51:32.101Z,99295.70
2023-02-18T00:54:00.527Z,99284.84
2023-02-18T00:56:29.326Z,99292.67
2023-02-18T00:58:57.895Z,99296.27
2023-02-18T01:01:27.364Z,99294.27
2023-02-18T01:03:55.675Z,99299.91
2023-02-18T01:06:30.797Z,99298.92
2023-02-18T01:09:07.992Z,99305.05
2023-02-18T01:11:36.702Z,99303.04
2023-02-18T01:14:05.136Z,99301.16
2023-02-18T01:16:33.591Z,99303.88
2023-02-18T01:19:01.946Z,99305.95
2023-02-18T01:21:30.334Z,99300.02
2023-02-18T01:23:59.147Z,99301.55
2023-02-18T01:26:27.508Z,99306.33
2023-02-18T01:28:55.804Z,99305.33
2023-02-18T01:31:24.214Z,99298.22
2023-02-18T01:33:52.835Z,99295.67
2023-02-18T01:36:22.232Z,99294.33
2023-02-18T01:38:50.503Z,99289.23
2023-02-18T01:41:18.844Z,99295.04
2023-02-18T01:43:47.520Z,99289.76
2023-02-18T01:46:18.978Z,99286.70
2023-02-18T01:48:51.906Z,99289.75
2023-02-18T01:51:23.967Z,99287.20
2023-02-18T01:53:56.420Z,99288.23
2023-02-18T01:56:29.209Z,99289.94
2023-02-18T01:59:00.039Z,99281.09
2023-02-18T02:01:28.680Z,99278.52
2023-02-18T02:03:56.958Z,99281.09
2023-02-18T02:06:26.201Z,99267.84
2023-02-18T02:09:00.908Z,99277.88
2023-02-18T02:11:45.993Z,99274.13
2023-02-18T02:14:28.803Z,99271.75
2023-02-18T02:17:05.339Z,99265.84
2023-02-18T02:20:02.229Z,99266.72
2023-02-18T02:23:08.660Z,99266.92
2023-02-18T02:25:45.890Z,99258.48
2023-02-18T02:28:43.241Z,99255.81
2023-02-18T02:31:45.325Z,99257.91
2023-02-18T02:34:58.508Z,99261.37
2023-02-18T02:37:36.523Z,99268.55
2023-02-18T02:40:19.085Z,99271.30
2023-02-18T02:42:59.959Z,99284.57
2023-02-18T02:45:41.422Z,99280.35
2023-02-18T02:48:21.338Z,99282.23
2023-02-18T02:50:54.795Z,99285.98
2023-02-18T02:53:27.097Z,99287.70
2023-02-18T02:55:55.609Z,99294.67
2023-02-18T02:58:24.663Z,99289.42
2023-02-18T03:01:24.851Z,99295.87
2023-02-18T03:04:09.779Z,99300.64
2023-02-18T03:06:57.851Z,99298.10
2023-02-18T03:09:38.575Z,99309.48
2023-02-18T03:12:13.246Z,99306.29
2023-02-18T03:14:48.486Z,99312.91
2023-02-18T03:17:21.787Z,99313.60
2023-02-18T03:19:55.504Z,99313.27
2023-02-18T03:22:29.149Z,99321.77
2023-02-18T03:24:59.827Z,99316.84
2023-02-18T03:27:33.336Z,99309.88
2023-02-18T03:30:07.479Z,99317.89
2023-02-18T03:32:37.616Z,99327.08
2023-02-18T03:35:12.990Z,99322.33
2023-02-18T03:37:47.944Z,99329.81
2023-02-18T03:40:27.170Z,99332.52
2023-02-18T03:42:58.519Z,99333.89
2023-02-18T03:45:27.567Z,99333.73
2023-02-18T03:47:56.036Z,99339.52
2023-02-18T03:50:27.656Z,99344.27
2023-02-18T03:52:55.925Z,99335.61
2023-02-18T03:55:24.233Z,99341.40
2023-02-18T03:57:54.278Z,99352.26
2023-02-18T04:00:28.439Z,99351.23
2023-02-18T04:03:02.247Z,99346.16
2023-02-18T04:05:57.301Z,99363.14
2023-02-18T04:08:43.559Z,99366.90
2023-02-18T04:11:32.038Z,99371.14
2023-02-18T04:14:27.889Z,99370.50
2023-02-18T04:16:58.167Z,99367.79
2023-02-18T04:19:26.470Z,99361.70
2023-02-18T04:21:54.688Z,99365.78
2023-02-18T04:24:22.932Z,99370.55
2023-02-18T04:26:51.481Z,99377.69
2023-02-18T04:29:19.758Z,99369.71
2023-02-18T04:31:48.090Z,99375.83
2023-02-18T04:34:16.404Z,99359.90
2023-02-18T04:36:44.656Z,99365.84
2023-02-18T04:39:12.969Z,99371.96
2023-02-18T04:41:41.350Z,99362.98
2023-02-18T04:44:09.591Z,99367.59
2023-02-18T04:46:38.869Z,99368.79
2023-02-18T04:49:07.092Z,99376.60
2023-02-18T04:51:37.102Z,99371.50
2023-02-18T04:54:06.011Z,99364.73
2023-02-18T04:56:34.500Z,99370.84
2023-02-18T04:59:02.758Z,99381.69
2023-02-18T05:01:31.107Z,99371.52
2023-02-18T05:03:59.480Z,99377.13
2023-02-18T05:06:27.761Z,99381.88
2023-02-18T05:08:55.984Z,99388.15
2023-02-18T05:11:24.387Z,99376.45
2023-02-18T05:13:52.628Z,99378.99
2023-02-18T05:16:20.826Z,99377.66
2023-02-18T05:18:49.035Z,99382.42
2023-02-18T05:21:17.306Z,99386.48
2023-02-18T05:23:45.535Z,99393.96
2023-02-18T05:26:13.849Z,99392.42
2023-02-18T05:28:42.055Z,99393.13
2023-02-18T05:31:10.394Z,99399.06
2023-02-18T05:33:38.773Z,99404.33
2023-02-18T05:36:08.519Z,99393.65
2023-02-18T05:38:36.966Z,99408.42
2023-02-18T05:41:05.559Z,99410.64
2023-02-18T05:43:54.272Z,99414.38
2023-02-18T05:46:22.678Z,99412.02
2023-02-18T05:48:50.924Z,99408.80
2023-02-18T05:51:19.430Z,99414.73
2023-02-18T05:53:47.722Z,99419.85
2023-02-18T05:56:15.979Z,99421.54
2023-02-18T05:58:44.579Z,99425.77
2023-02-18T06:01:13.039Z,99421.88
2023-02-18T06:03:41.240Z,99412.89
2023-02-18T06:06:09.693Z,99412.05
2023-02-18T06:08:38.292Z,99424.92
2023-02-18T06:11:06.587Z,99412.55
2023-02-18T06:13:35.126Z,99427.80
2023-02-18T06:16:03.452Z,99428.32
2023-02-18T06:18:31.671Z,99437.31
2023-02-18T06:20:59.925Z,99439.69
2023-02-18T06:23:28.208Z,99437.48
2023-02-18T06:25:56.430Z,99436.97
2023-02-18T06:28:24.617Z,99449.69
2023-02-18T06:30:53.151Z,99449.70
2023-02-18T06:33:21.551Z,99448.67
2023-02-18T06:35:58.360Z,99453.23
2023-02-18T06:38:27.172Z,99447.45
2023-02-18T06:40:55.796Z,99451.20
2023-02-18T06:43:23.960Z,99444.91
2023-02-18T06:45:52.318Z,99456.28
2023-02-18T06:48:21.125Z,99472.23
2023-02-18T06:50:50.375Z,99469.00
2023-02-18T06:53:18.702Z,99477.32
2023-02-18T06:55:47.029Z,99474.09
2023-02-18T06:58:16.180Z,99481.36
2023-02-18T07:00:44.686Z,99486.78
2023-02-18T07:03:14.067Z,99485.77
2023-02-18T07:05:42.329Z,99478.80
2023-02-18T07:08:10.596Z,99473.84
2023-02-18T07:10:39.075Z,99481.76
2023-02-18T07:13:07.333Z,99486.80
2023-02-18T07:15:35.675Z,99489.66
2023-02-18T07:18:04.571Z,99482.31
2023-02-18T07:20:32.974Z,99485.59
2023-02-18T07:23:01.358Z,99492.75
2023-02-18T07:25:29.535Z,99483.22
2023-02-18T07:27:57.820Z,99484.63
2023-02-18T07:30:26.862Z,99492.98
2023-02-18T07:32:55.752Z,99489.81
2023-02-18T07:35:24.103Z,99487.46
2023-02-18T07:37:52.498Z,99485.16
2023-02-18T07:40:22.201Z,99479.65
2023-02-18T07:42:52.231Z,99485.91
2023-02-18T07:45:20.766Z,99486.74
2023-02-18T07:47:49.214Z,99482.33
2023-02-18T07:50:27.686Z,99485.44
2023-02-18T07:52:56.574Z,99491.30
2023-02-18T07:55:24.937Z,99494.77
2023-02-18T07:58:01.606Z,99505.98
2023-02-18T08:00:29.997Z,99502.84
2023-02-18T08:02:59.410Z,99497.00
2023-02-18T08:05:28.845Z,99498.32
2023-02-18T08:07:57.633Z,99499.08
2023-02-18T08:10:25.912Z,99491.48
2023-02-18T08:12:56.074Z,99493.29
2023-02-18T08:15:24.298Z,99503.89
2023-02-18T08:17:53.120Z,99497.74
2023-02-18T08:20:21.840Z,99506.20
2023-02-18T08:22:50.162Z,99502.88
2023-02-18T08:25:29.532Z,99503.92
2023-02-18T08:27:58.314Z,99505.13
2023-02-18T08:30:27.154Z,99509.20
2023-02-18T08:32:55.568Z,99500.13
2023-02-18T08:35:24.088Z,99500.52
2023-02-18T08:37:54.185Z,99500.97
2023-02-18T08:40:23.188Z,99495.97
2023-02-18T08:42:51.438Z,99505.31
2023-02-18T08:45:20.217Z,99502.94
2023-02-18T08:48:16.969Z,99509.13
2023-02-18T08:50:36.936Z,99508.47
2023-02-18T08:53:05.451Z,99510.60
2023-02-18T08:55:48.078Z,99518.25
2023-02-18T08:58:16.726Z,99520.60
2023-02-18T09:00:45.829Z,99515.19
2023-02-18T09:03:15.322Z,99519.59
2023-02-18T09:05:43.722Z,99518.19
2023-02-18T09:08:12.019Z,99517.81
2023-02-18T09:10:40.262Z,99520.98
2023-02-18T09:13:08.443Z,99523.78
2023-02-18T09:15:36.874Z,99520.11
2023-02-18T09:18:05.441Z,99535.27
2023-02-18T09:20:33.631Z,99534.04
2023-02-18T09:23:03.211Z,99541.46
2023-02-18T09:25:31.386Z,99542.77
2023-02-18T09:28:02.452Z,99543.11
2023-02-18T09:30:30.823Z,99547.61
2023-02-18T09:32:59.083Z,99547.52
2023-02-18T09:35:27.333Z,99556.35
2023-02-18T09:37:55.544Z,99548.41
2023-02-18T09:40:29.353Z,99552.52
2023-02-18T09:42:59.022Z,99558.19
2023-02-18T09:45:28.230Z,99557.21
2023-02-18T09:47:57.795Z,99560.98
2023-02-18T09:50:30.191Z,99568.00
2023-02-18T09:53:01.445Z,99564.96
2023-02-18T09:55:33.496Z,99570.95
2023-02-18T09:58:04.619Z,99573.20
2023-02-18T10:00:36.365Z,99578.86
2023-02-18T10:03:07.755Z,99587.09
2023-02-18T10:05:40.712Z,99589.34
2023-02-18T10:08:19.837Z,99590.55
2023-02-18T10:10:48.879Z,99585.48
2023-02-18T10:13:20.169Z,99600.65
2023-02-18T10:15:50.294Z,99595.73
2023-02-18T10:18:27.393Z,99593.94
2023-02-18T10:21:04.805Z,99598.22
2023-02-18T10:23:35.010Z,99600.42
2023-02-18T10:26:06.693Z,99603.80
2023-02-18T10:28:36.789Z,99597.10
2023-02-18T10:31:10.295Z,99594.80
2023-02-18T10:33:47.413Z,99593.25
2023-02-18T10:36:24.984Z,99595.59
2023-02-18T10:39:08.726Z,99578.52
2023-02-18T10:41:47.228Z,99591.58
2023-02-18T10:44:22.401Z,99588.10
2023-02-18T10:46:59.962Z,99591.45
2023-02-18T10:49:48.589Z,99582.23
2023-02-18T10:52:19.377Z,99575.92
2023-02-18T10:54:53.790Z,99572.19
2023-02-18T10:57:24.814Z,99571.49
2023-02-18T10:59:59.120Z,99560.58
2023-02-18T11:02:30.921Z,99564.53
2023-02-18T11:05:06.293Z,99569.86
2023-02-18T11:07:38.612Z,99569.06
2023-02-18T11:10:17.068Z,99569.28
2023-02-18T11:12:48.931Z,99570.00
2023-02-18T11:15:23.816Z,99566.29
2023-02-18T11:17:53.817Z,99561.05
2023-02-18T11:20:26.711Z,99564.66
2023-02-18T11:22:59.338Z,99559.73
2023-02-18T11:25:32.962Z,99562.31
2023-02-18T11:28:05.290Z,99551.57
2023-02-18T11:30:36.965Z,99552.59
2023-02-18T11:33:09.574Z,99555.81
2023-02-18T11:35:38.550Z,99550.70
2023-02-18T11:38:23.185Z,99546.45
2023-02-18T11:40:57.597Z,99551.89
2023-02-18T11:43:30.624Z,99547.98
2023-02-18T11:46:10.492Z,99542.86
2023-02-18T11:48:39.193Z,99534.84
2023-02-18T11:51:17.350Z,99535.84
2023-02-18T11:54:01.467Z,99530.98
2023-02-18T11:56:33.404Z,99523.27
2023-02-18T11:59:03.544Z,99522.34
2023-02-18T12:01:45.338Z,99519.92
2023-02-18T12:04:16.636Z,99516.83
2023-02-18T12:06:52.657Z,99516.81
2023-02-18T12:09:28.543Z,99515.21
2023-02-18T12:12:00.407Z,99512.45
2023-02-18T12:14:29.302Z,99510.88
2023-02-18T12:17:30.911Z,99510.82
2023-02-18T12:20:26.881Z,99508.36
2023-02-18T12:23:03.583Z,99505.42
2023-02-18T12:25:40.508Z,99505.06
2023-02-18T12:28:29.335Z,99505.77
2023-02-18T12:31:17.577Z,99504.26
2023-02-18T12:33:58.040Z,99502.41
2023-02-18T12:36:40.345Z,99490.34
2023-02-18T12:39:21.997Z,99492.52
2023-02-18T12:42:03.261Z,99487.20
2023-02-18T12:44:45.143Z,99493.10
2023-02-18T12:47:31.647Z,99487.77
2023-02-18T12:50:33.771Z,99478.38
2023-02-18T12:53:20.451Z,99482.72
2023-02-18T12:56:01.875Z,99487.30
2023-02-18T12:58:42.497Z,99485.45
2023-02-18T13:01:29.354Z,99478.17
2023-02-18T13:04:32.079Z,99474.27
2023-02-18T13:07:32.161Z,99472.31
2023-02-18T13:10:20.156Z,99468.43
2023-02-18T13:12:57.856Z,99462.33
2023-02-18T13:15:39.149Z,99462.33
2023-02-18T13:18:13.571Z,99449.91
2023-02-18T13:20:45.504Z,99450.65
2023-02-18T13:23:20.181Z,99450.07
2023-02-18T13:25:54.923Z,99447.95
2023-02-18T13:28:30.546Z,99454.17
2023-02-18T13:31:14.037Z,99457.67
2023-02-18T13:33:51.698Z,99460.33
2023-02-18T13:36:34.203Z,99456.48
2023-02-18T13:39:06.861Z,99465.90
2023-02-18T13:41:39.938Z,99463.73
2023-02-18T13:44:53.026Z,99467.52
2023-02-18T13:47:39.810Z,99463.05
2023-02-18T13:50:42.084Z,99462.65
2023-02-18T13:53:22.740Z,99460.67
2023-02-18T13:56:03.290Z,99460.89
2023-02-18T13:58:37.640Z,99469.30
2023-02-18T14:01:14.475Z,99465.75
2023-02-18T14:03:58.365Z,99467.50
2023-02-18T14:06:28.783Z,99469.27
2023-02-18T14:09:36.712Z,99466.27
2023-02-18T14:12:25.235Z,99457.96
2023-02-18T14:14:53.976Z,99454.94
2023-02-18T14:17:42.118Z,99452.95
2023-02-18T14:20:30.888Z,99445.35
2023-02-18T14:22:59.492Z,99441.52
2023-02-18T14:25:37.064Z,99446.29
2023-02-18T14:28:39.877Z,99432.23
2023-02-18T14:31:34.029Z,99428.88
2023-02-18T14:34:24.955Z,99432.50
2023-02-18T14:37:03.908Z,99433.58
2023-02-18T14:39:45.333Z,99428.50
2023-02-18T14:42:28.721Z,99426.13
2023-02-18T14:45:13.767Z,99423.40
2023-02-18T14:47:56.178Z,99419.69
2023-02-18T14:50:24.926Z,99416.63
2023-02-18T14:52:57.546Z,99420.34
2023-02-18T14:55:30.268Z,99417.80
2023-02-18T14:58:02.692Z,99421.71
2023-02-18T15:00:38.971Z,99423.41
2023-02-18T15:03:15.843Z,99427.17
2023-02-18T15:05:45.227Z,99426.20
2023-02-18T15:08:17.773Z,99437.64
2023-02-18T15:10:49.125Z,99444.66
2023-02-18T15:13:23.796Z,99444.38
2023-02-18T15:15:54.725Z,99440.68
2023-02-18T15:18:32.239Z,99443.30
2023-02-18T15:21:02.534Z,99445.77
2023-02-18T15:23:31.910Z,99440.74
2023-02-18T15:26:00.217Z,99447.10
2023-02-18T15:28:30.418Z,99448.34
2023-02-18T15:31:00.297Z,99448.89
2023-02-18T15:33:29.313Z,99454.02
2023-02-18T15:36:03.316Z,99452.01
2023-02-18T15:38:32.264Z,99455.29
2023-02-18T15:41:01.635Z,99452.97
2023-02-18T15:43:31.617Z,99454.88
2023-02-18T15:45:59.869Z,99449.84
2023-02-18T15:48:33.536Z,99451.26
2023-02-18T15:51:17.016Z,99452.33
2023-02-18T15:53:50.819Z,99446.45
2023-02-18T15:56:26.493Z,99447.99
2023-02-18T15:59:09.564Z,99445.14
2023-02-18T16:01:37.949Z,99452.79
2023-02-18T16:04:08.224Z,99448.38
2023-02-18T16:06:39.586Z,99451.95
2023-02-18T16:09:16.990Z,99449.39
2023-02-18T16:11:48.327Z,99445.48
2023-02-18T16:14:29.809Z,99448.70
2023-02-18T16:17:16.177Z,99448.55
2023-02-18T16:20:03.379Z,99449.21
2023-02-18T16:22:42.939Z,99440.23
2023-02-18T16:25:17.295Z,99443.96
2023-02-18T16:27:51.852Z,99448.54
2023-02-18T16:30:22.532Z,99443.97
2023-02-18T16:32:54.214Z,99443.63
2023-02-18T16:35:24.751Z,99450.06
2023-02-18T16:37:53.924Z,99448.37
2023-02-18T16:40:30.890Z,99445.98
2023-02-18T16:43:01.478Z,99447.52
2023-02-18T16:45:36.233Z,99453.13
2023-02-18T16:48:05.791Z,99448.90
2023-02-18T16:50:34.878Z,99448.40
2023-02-18T16:53:03.186Z,99450.45
2023-02-18T16:55:35.707Z,99446.04
2023-02-18T16:58:04.059Z,99446.71
2023-02-18T17:00:32.762Z,99447.55
2023-02-18T17:03:01.907Z,99447.55
2023-02-18T17:05:36.022Z,99445.35
2023-02-18T17:08:16.458Z,99447.89
2023-02-18T17:10:44.873Z,99453.65
2023-02-18T17:13:16.191Z,99447.21
2023-02-18T17:15:47.578Z,99439.23
2023-02-18T17:18:16.267Z,99431.92
2023-02-18T17:20:47.827Z,99426.00
2023-02-18T17:23:16.928Z,99431.58
2023-02-18T17:25:45.330Z,99440.75
2023-02-18T17:28:16.272Z,99437.36
2023-02-18T17:30:48.429Z,99443.13
2023-02-18T17:33:18.871Z,99446.67
2023-02-18T17:35:47.306Z,99441.42
2023-02-18T17:38:19.662Z,99446.52
2023-02-18T17:40:49.438Z,99444.14
2023-02-18T17:43:22.581Z,99444.48
2023-02-18T17:45:54.377Z,99445.50
2023-02-18T17:48:23.287Z,99436.16
2023-02-18T17:50:54.261Z,99430.58
2023-02-18T17:53:23.643Z,99432.27
2023-02-18T17:55:52.717Z,99431.29
2023-02-18T17:58:21.152Z,99434.17
2023-02-18T18:00:54.949Z,99435.71
2023-02-18T18:03:24.019Z,99431.48
2023-02-18T18:05:53.963Z,99426.91
2023-02-18T18:08:22.557Z,99419.27
2023-02-18T18:10:54.273Z,99415.02
2023-02-18T18:13:24.842Z,99414.02
2023-02-18T18:15:58.077Z,99407.07
2023-02-18T18:18:30.761Z,99410.64
2023-02-18T18:21:01.208Z,99402.67
2023-02-18T18:23:29.918Z,99403.02
2023-02-18T18:25:59.700Z,99398.79
2023-02-18T18:28:31.853Z,99405.74
2023-02-18T18:31:01.969Z,99415.76
2023-02-18T18:33:32.732Z,99420.00
2023-02-18T18:37:02.480Z,99420.35
2023-02-18T18:39:53.728Z,99409.17
2023-02-18T18:42:22.638Z,99413.23
2023-02-18T18:44:51.781Z,99412.07
2023-02-18T18:47:23.457Z,99410.39
2023-02-18T18:50:12.983Z,99404.30
2023-02-18T18:52:43.051Z,99403.81
2023-02-18T18:55:24.723Z,99397.55
2023-02-18T18:57:55.962Z,99407.23
2023-02-18T19:00:27.093Z,99416.41
2023-02-18T19:02:55.827Z,99423.52
2023-02-18T19:05:28.302Z,99432.33
2023-02-18T19:07:58.194Z,99434.38
2023-02-18T19:10:30.353Z,99439.27
2023-02-18T19:13:07.992Z,99446.74
2023-02-18T19:15:36.426Z,99452.01
2023-02-18T19:18:06.197Z,99456.41
2023-02-18T19:20:35.688Z,99459.13
2023-02-18T19:23:05.294Z,99458.97
2023-02-18T19:25:47.260Z,99462.52
2023-02-18T19:28:15.862Z,99473.53
2023-02-18T19:30:45.780Z,99475.91
2023-02-18T19:33:17.173Z,99470.82
2023-02-18T19:35:45.639Z,99465.23
2023-02-18T19:38:16.338Z,99458.45
2023-02-18T19:40:46.013Z,99465.05
2023-02-18T19:43:14.933Z,99472.70
2023-02-18T19:45:47.175Z,99474.55
2023-02-18T19:48:20.295Z,99486.07
2023-02-18T19:50:48.742Z,99495.73
2023-02-18T19:53:17.093Z,99496.75
2023-02-18T19:55:45.517Z,99502.34
2023-02-18T19:58:14.078Z,99500.64
2023-02-18T20:00:43.172Z,99499.80
2023-02-18T20:03:11.652Z,99507.59
2023-02-18T20:05:40.168Z,99515.72
2023-02-18T20:08:08.753Z,99527.75
2023-02-18T20:10:37.331Z,99534.18
2023-02-18T20:13:10.792Z,99542.99
2023-02-18T20:15:40.293Z,99543.84
2023-02-18T20:18:08.990Z,99544.02
2023-02-18T20:20:37.615Z,99544.86
2023-02-18T20:23:07.609Z,99542.64
2023-02-18T20:25:40.981Z,99542.66
2023-02-18T20:28:09.576Z,99547.39
2023-02-18T20:30:44.252Z,99550.96
2023-02-18T20:33:12.551Z,99558.24
2023-02-18T20:35:40.733Z,99556.37
2023-02-18T20:38:08.907Z,99559.26
2023-02-18T20:40:37.152Z,99560.96
2023-02-18T20:43:06.801Z,99564.52
2023-02-18T20:45:34.963Z,99564.34
2023-02-18T20:48:05.359Z,99563.84
2023-02-18T20:50:33.607Z,99566.73
2023-02-18T20:53:04.063Z,99570.61
2023-02-18T20:55:32.286Z,99572.31
2023-02-18T20:58:00.550Z,99574.84
2023-02-18T21:00:28.858Z,99578.06
2023-02-18T21:02:57.039Z,99582.48
2023-02-18T21:05:25.376Z,99588.06
2023-02-18T21:07:53.542Z,99593.82
2023-02-18T21:10:23.753Z,99593.48
2023-02-18T21:12:51.989Z,99595.17
2023-02-18T21:15:20.209Z,99595.70
2023-02-18T21:17:48.439Z,99593.48
2023-02-18T21:20:17.024Z,99592.80
2023-02-18T21:22:45.307Z,99604.50
2023-02-18T21:25:13.598Z,99611.27
2023-02-18T21:27:42.206Z,99609.92
2023-02-18T21:30:11.983Z,99605.69
2023-02-18T21:32:40.154Z,99607.55
2023-02-18T21:35:08.570Z,99610.60
2023-02-18T21:37:36.835Z,99614.84
2023-02-18T21:40:06.048Z,99621.94
2023-02-18T21:42:34.671Z,99628.89
2023-02-18T21:45:03.710Z,99632.27
2023-02-18T21:47:31.880Z,99640.73
2023-02-18T21:50:02.929Z,99647.48
2023-02-18T21:52:31.808Z,99642.23
2023-02-18T21:55:00.021Z,99642.56
2023-02-18T21:57:28.257Z,99652.37
2023-02-18T22:00:01.740Z,99662.84
2023-02-18T22:02:40.860Z,99671.96
2023-02-18T22:05:09.606Z,99678.38
2023-02-18T22:07:37.934Z,99685.63
2023-02-18T22:10:07.371Z,99697.43
2023-02-18T22:12:35.824Z,99697.92
2023-02-18T22:15:04.879Z,99695.52
2023-02-18T22:17:33.198Z,99693.63
2023-02-18T22:20:01.722Z,99700.20
2023-02-18T22:22:30.017Z,99701.34
2023-02-18T22:24:58.281Z,99702.98
2023-02-18T22:27:26.605Z,99710.75
2023-02-18T22:29:54.843Z,99710.71
2023-02-18T22:32:23.664Z,99711.52
2023-02-18T22:34:52.728Z,99718.73
2023-02-18T22:37:20.953Z,99720.58
2023-02-18T22:39:50.477Z,99723.58
2023-02-18T22:42:18.737Z,99727.95
2023-02-18T22:44:47.037Z,99726.06
2023-02-18T22:47:15.265Z,99729.26
2023-02-18T22:49:43.692Z,99734.13
2023-02-18T22:52:11.986Z,99734.74
2023-02-18T22:54:40.294Z,99736.58
2023-02-18T22:57:08.505Z,99731.48
2023-02-18T22:59:36.793Z,99738.77
2023-02-18T23:02:04.966Z,99733.04
2023-02-18T23:04:33.241Z,99731.02
2023-02-18T23:07:01.580Z,99738.45
2023-02-18T23:09:31.359Z,99739.14
2023-02-18T23:11:59.605Z,99746.06
2023-02-18T23:14:29.842Z,99751.33
2023-02-18T23:17:17.214Z,99753.38
2023-02-18T23:19:49.067Z,99759.82
2023-02-18T23:22:22.436Z,99764.77
2023-02-18T23:24:50.886Z,99763.45
2023-02-18T23:27:20.856Z,99766.84
2023-02-18T23:29:49.244Z,99767.19
2023-02-18T23:32:18.158Z,99760.27
2023-02-18T23:34:46.417Z,99767.38
2023-02-18T23:37:14.720Z,99778.54
2023-02-18T23:39:47.086Z,99780.75
2023-02-18T23:42:16.452Z,99785.66
2023-02-18T23:44:49.553Z,99781.29
2023-02-18T23:47:17.902Z,99785.86
2023-02-18T23:49:46.031Z,99784.33
2023-02-18T23:52:14.262Z,99790.41
2023-02-18T23:54:43.808Z,99789.89
2023-02-18T23:57:12.048Z,99794.82
2023-02-18T23:59:41.736Z,99794.48
